createdAt,value
2018-07-07T00:00:41.470Z,0
2018-07-07T00:01:41.450Z,0
2018-07-07T00:02:41.168Z,0
2018-07-07T00:03:41.434Z,0
2018-07-07T00:04:40.875Z,0
2018-07-07T00:05:41.401Z,0
2018-07-07T00:06:41.395Z,0
2018-07-07T00:07:41.116Z,0
2018-07-07T00:08:41.392Z,0
2018-07-07T00:09:41.105Z,0
2018-07-07T00:10:41.078Z,0
2018-07-07T00:11:41.333Z,0
2018-07-07T00:12:41.057Z,0
2018-07-07T00:13:41.036Z,0
2018-07-07T00:14:41.027Z,0
2018-07-07T00:15:41.022Z,0
2018-07-07T00:16:41.551Z,0
2018-07-07T00:17:41.516Z,0
2018-07-07T00:18:41.248Z,0
2018-07-07T00:19:40.700Z,0
2018-07-07T00:20:40.961Z,0
2018-07-07T00:21:40.943Z,0
2018-07-07T00:22:40.941Z,0
2018-07-07T00:23:41.198Z,0
2018-07-07T00:24:40.907Z,0
2018-07-07T00:25:40.916Z,0
2018-07-07T00:26:40.895Z,0
2018-07-07T00:27:40.889Z,0
2018-07-07T00:28:40.856Z,0
2018-07-07T00:29:40.848Z,0
2018-07-07T00:30:40.839Z,0
2018-07-07T00:31:41.150Z,0
2018-07-07T00:32:41.347Z,0
2018-07-07T00:33:40.807Z,0
2018-07-07T00:34:40.806Z,0
2018-07-07T00:35:41.312Z,0
2018-07-07T00:36:41.034Z,0
2018-07-07T00:37:40.756Z,0
2018-07-07T00:38:40.747Z,0
2018-07-07T00:39:41.008Z,0
2018-07-07T00:40:41.004Z,0
2018-07-07T00:41:41.038Z,0
2018-07-07T00:42:41.251Z,0
2018-07-07T00:43:41.218Z,0
2018-07-07T00:44:40.939Z,0
2018-07-07T00:45:40.931Z,0
2018-07-07T00:46:40.917Z,0
2018-07-07T00:47:40.645Z,0
2018-07-07T00:48:40.899Z,0
2018-07-07T00:49:40.631Z,0
2018-07-07T00:50:40.879Z,0
2018-07-07T00:51:40.336Z,0
2018-07-07T00:52:40.585Z,0
2018-07-07T00:53:40.580Z,0
2018-07-07T00:54:40.983Z,0
2018-07-07T00:55:40.822Z,0
2018-07-07T00:56:40.854Z,0
2018-07-07T00:57:40.528Z,0
2018-07-07T00:58:41.046Z,0
2018-07-07T00:59:41.042Z,0
2018-07-07T01:00:40.496Z,0
2018-07-07T01:01:41.002Z,0
2018-07-07T01:02:40.993Z,0
2018-07-07T01:03:40.475Z,0
2018-07-07T01:04:40.710Z,0
2018-07-07T01:05:40.717Z,0
2018-07-07T01:06:40.433Z,0
2018-07-07T01:07:40.941Z,0
2018-07-07T01:08:40.402Z,0
2018-07-07T01:09:41.084Z,0
2018-07-07T01:10:40.128Z,0
2018-07-07T01:11:39.836Z,0
2018-07-07T01:12:40.623Z,0
2018-07-07T01:13:40.620Z,0
2018-07-07T01:14:40.879Z,0
2018-07-07T01:15:40.582Z,0
2018-07-07T01:16:40.572Z,0
2018-07-07T01:17:40.294Z,0
2018-07-07T01:18:40.812Z,0
2018-07-07T01:19:40.281Z,0
2018-07-07T01:20:39.733Z,0
2018-07-07T01:21:39.992Z,0
2018-07-07T01:22:40.514Z,0
2018-07-07T01:23:40.753Z,0
2018-07-07T01:24:40.219Z,0
2018-07-07T01:25:40.215Z,0
2018-07-07T01:26:40.191Z,0
2018-07-07T01:27:40.187Z,0
2018-07-07T01:28:40.702Z,0
2018-07-07T01:29:40.425Z,0
2018-07-07T01:30:40.154Z,0
2018-07-07T01:31:40.665Z,0
2018-07-07T01:32:40.392Z,0
2018-07-07T01:33:40.643Z,0
2018-07-07T01:34:40.652Z,0
2018-07-07T01:35:40.358Z,0
2018-07-07T01:36:40.616Z,0
2018-07-07T01:37:40.441Z,0
2018-07-07T01:38:40.073Z,0
2018-07-07T01:39:40.583Z,0
2018-07-07T01:40:40.305Z,0
2018-07-07T01:41:39.759Z,0
2018-07-07T01:42:40.600Z,0
2018-07-07T01:43:40.531Z,0
2018-07-07T01:44:40.274Z,0
2018-07-07T01:45:40.444Z,0
2018-07-07T01:46:39.978Z,0
2018-07-07T01:47:40.221Z,0
2018-07-07T01:48:39.730Z,0
2018-07-07T01:49:40.492Z,0
2018-07-07T01:50:40.184Z,0
2018-07-07T01:51:39.649Z,0
2018-07-07T01:52:40.164Z,0
2018-07-07T01:53:39.879Z,0
2018-07-07T01:54:39.611Z,0
2018-07-07T01:55:39.889Z,0
2018-07-07T01:56:39.855Z,0
2018-07-07T01:57:40.104Z,0
2018-07-07T01:58:40.079Z,0
2018-07-07T01:59:39.816Z,0
2018-07-07T02:00:40.707Z,0
2018-07-07T02:01:39.530Z,0
2018-07-07T02:02:39.787Z,0
2018-07-07T02:03:40.301Z,0
2018-07-07T02:04:40.305Z,0
2018-07-07T02:05:40.011Z,0
2018-07-07T02:06:40.007Z,0
2018-07-07T02:07:39.718Z,0
2018-07-07T02:08:39.713Z,0
2018-07-07T02:09:40.227Z,0
2018-07-07T02:10:40.225Z,0
2018-07-07T02:11:40.199Z,0
2018-07-07T02:12:39.671Z,0
2018-07-07T02:13:39.919Z,0
2018-07-07T02:14:39.643Z,0
2018-07-07T02:15:40.155Z,0
2018-07-07T02:16:40.146Z,0
2018-07-07T02:17:39.351Z,0
2018-07-07T02:18:39.855Z,0
2018-07-07T02:19:39.853Z,0
2018-07-07T02:20:39.568Z,0
2018-07-07T02:21:39.818Z,0
2018-07-07T02:22:39.815Z,0
2018-07-07T02:23:39.535Z,0
2018-07-07T02:24:39.789Z,0
2018-07-07T02:25:40.044Z,0
2018-07-07T02:26:39.230Z,0
2018-07-07T02:27:39.225Z,0
2018-07-07T02:28:39.209Z,0
2018-07-07T02:29:39.458Z,0
2018-07-07T02:30:39.724Z,0
2018-07-07T02:31:39.459Z,0
2018-07-07T02:32:39.704Z,0
2018-07-07T02:33:39.684Z,0
2018-07-07T02:34:39.676Z,0
2018-07-07T02:35:39.964Z,0
2018-07-07T02:36:39.920Z,0
2018-07-07T02:37:39.122Z,0
2018-07-07T02:38:39.895Z,0
2018-07-07T02:39:39.374Z,0
2018-07-07T02:40:39.347Z,0
2018-07-07T02:41:39.603Z,0
2018-07-07T02:42:39.320Z,0
2018-07-07T02:43:39.571Z,0
2018-07-07T02:44:39.560Z,0
2018-07-07T02:45:39.574Z,0
2018-07-07T02:46:39.282Z,0
2018-07-07T02:47:39.525Z,0
2018-07-07T02:48:39.503Z,0
2018-07-07T02:49:39.512Z,0
2018-07-07T02:50:39.495Z,0
2018-07-07T02:51:39.214Z,0
2018-07-07T02:52:39.205Z,0
2018-07-07T02:53:39.745Z,0
2018-07-07T02:54:39.445Z,0
2018-07-07T02:55:39.429Z,0
2018-07-07T02:56:39.156Z,0
2018-07-07T02:57:39.400Z,0
2018-07-07T02:58:39.393Z,0
2018-07-07T02:59:39.138Z,0
2018-07-07T03:00:39.638Z,0
2018-07-07T03:01:39.101Z,0
2018-07-07T03:02:39.626Z,0
2018-07-07T03:03:39.605Z,0
2018-07-07T03:04:39.069Z,0
2018-07-07T03:05:39.052Z,0
2018-07-07T03:06:38.767Z,0
2018-07-07T03:07:39.289Z,0
2018-07-07T03:08:39.011Z,0
2018-07-07T03:09:39.543Z,0
2018-07-07T03:10:38.988Z,0
2018-07-07T03:11:39.239Z,0
2018-07-07T03:12:39.498Z,0
2018-07-07T03:13:39.490Z,0
2018-07-07T03:14:38.963Z,0
2018-07-07T03:15:39.467Z,0
2018-07-07T03:16:39.197Z,0
2018-07-07T03:17:39.433Z,0
2018-07-07T03:18:38.622Z,0
2018-07-07T03:19:39.154Z,0
2018-07-07T03:20:39.138Z,0
2018-07-07T03:21:39.122Z,0
2018-07-07T03:22:38.584Z,0
2018-07-07T03:23:39.108Z,0
2018-07-07T03:24:38.825Z,0
2018-07-07T03:25:39.077Z,0
2018-07-07T03:26:38.803Z,0
2018-07-07T03:27:38.787Z,0
2018-07-07T03:28:39.032Z,0
2018-07-07T03:29:39.284Z,0
2018-07-07T03:30:38.494Z,0
2018-07-07T03:31:38.746Z,5
2018-07-07T03:32:39.245Z,5
2018-07-07T03:33:39.236Z,5
2018-07-07T03:34:39.224Z,5
2018-07-07T03:35:38.686Z,5
2018-07-07T03:36:38.676Z,5
2018-07-07T03:37:38.663Z,5
2018-07-07T03:38:38.644Z,5
2018-07-07T03:39:38.640Z,5
2018-07-07T03:40:38.356Z,5
2018-07-07T03:41:38.878Z,5
2018-07-07T03:42:38.604Z,5
2018-07-07T03:43:38.320Z,5
2018-07-07T03:44:38.835Z,5
2018-07-07T03:45:39.028Z,5
2018-07-07T03:46:39.092Z,5
2018-07-07T03:47:38.808Z,10
2018-07-07T03:48:38.527Z,10
2018-07-07T03:49:38.785Z,10
2018-07-07T03:50:38.775Z,10
2018-07-07T03:51:38.756Z,10
2018-07-07T03:52:38.474Z,10
2018-07-07T03:53:38.199Z,10
2018-07-07T03:54:38.980Z,10
2018-07-07T03:55:38.455Z,10
2018-07-07T03:56:38.698Z,10
2018-07-07T03:57:38.686Z,10
2018-07-07T03:58:38.142Z,10
2018-07-07T03:59:38.931Z,10
2018-07-07T04:00:38.903Z,10
2018-07-07T04:01:38.901Z,10
2018-07-07T04:02:38.376Z,10
2018-07-07T04:03:38.609Z,10
2018-07-07T04:04:38.340Z,10
2018-07-07T04:05:38.319Z,10
2018-07-07T04:06:38.833Z,10
2018-07-07T04:07:38.824Z,10
2018-07-07T04:08:38.281Z,10
2018-07-07T04:09:38.804Z,15
2018-07-07T04:10:38.790Z,15
2018-07-07T04:11:38.515Z,15
2018-07-07T04:12:38.230Z,15
2018-07-07T04:13:38.489Z,15
2018-07-07T04:14:38.467Z,15
2018-07-07T04:15:38.727Z,15
2018-07-07T04:16:37.921Z,15
2018-07-07T04:17:38.429Z,20
2018-07-07T04:18:38.166Z,20
2018-07-07T04:19:38.148Z,20
2018-07-07T04:20:38.150Z,20
2018-07-07T04:21:38.389Z,20
2018-07-07T04:22:38.376Z,20
2018-07-07T04:23:38.624Z,20
2018-07-07T04:24:38.613Z,25
2018-07-07T04:25:38.080Z,25
2018-07-07T04:26:38.591Z,25
2018-07-07T04:27:38.580Z,25
2018-07-07T04:28:38.037Z,25
2018-07-07T04:29:38.286Z,25
2018-07-07T04:30:38.485Z,25
2018-07-07T04:31:38.264Z,25
2018-07-07T04:32:38.519Z,30
2018-07-07T04:33:38.498Z,30
2018-07-07T04:34:37.432Z,30
2018-07-07T04:35:37.954Z,35
2018-07-07T04:36:38.466Z,35
2018-07-07T04:37:38.194Z,40
2018-07-07T04:38:37.908Z,40
2018-07-07T04:39:38.162Z,40
2018-07-07T04:40:38.415Z,40
2018-07-07T04:41:38.398Z,40
2018-07-07T04:42:37.867Z,40
2018-07-07T04:43:38.430Z,40
2018-07-07T04:44:38.381Z,40
2018-07-07T04:45:38.358Z,40
2018-07-07T04:46:37.818Z,40
2018-07-07T04:47:38.327Z,40
2018-07-07T04:48:38.312Z,45
2018-07-07T04:49:38.297Z,45
2018-07-07T04:50:38.030Z,45
2018-07-07T04:51:37.745Z,45
2018-07-07T04:52:38.181Z,45
2018-07-07T04:53:37.991Z,45
2018-07-07T04:54:38.252Z,45
2018-07-07T04:55:37.701Z,45
2018-07-07T04:56:37.687Z,45
2018-07-07T04:57:37.937Z,50
2018-07-07T04:58:37.927Z,50
2018-07-07T04:59:38.185Z,50
2018-07-07T05:00:37.635Z,50
2018-07-07T05:01:38.160Z,50
2018-07-07T05:02:38.138Z,50
2018-07-07T05:03:37.596Z,50
2018-07-07T05:04:38.485Z,50
2018-07-07T05:05:37.898Z,50
2018-07-07T05:06:38.141Z,50
2018-07-07T05:07:37.290Z,50
2018-07-07T05:08:37.547Z,50
2018-07-07T05:09:38.068Z,50
2018-07-07T05:10:37.254Z,50
2018-07-07T05:11:38.031Z,50
2018-07-07T05:12:37.749Z,45
2018-07-07T05:13:38.002Z,45
2018-07-07T05:14:37.732Z,45
2018-07-07T05:15:37.937Z,50
2018-07-07T05:16:37.175Z,50
2018-07-07T05:17:37.441Z,50
2018-07-07T05:18:37.151Z,50
2018-07-07T05:19:37.944Z,50
2018-07-07T05:20:37.964Z,50
2018-07-07T05:21:37.649Z,50
2018-07-07T05:22:37.636Z,50
2018-07-07T05:23:37.624Z,50
2018-07-07T05:24:37.347Z,50
2018-07-07T05:25:37.070Z,55
2018-07-07T05:26:37.322Z,55
2018-07-07T05:27:37.839Z,60
2018-07-07T05:28:37.560Z,60
2018-07-07T05:29:37.549Z,60
2018-07-07T05:30:37.271Z,60
2018-07-07T05:31:37.791Z,60
2018-07-07T05:32:37.779Z,60
2018-07-07T05:33:37.232Z,60
2018-07-07T05:34:37.755Z,60
2018-07-07T05:35:37.469Z,60
2018-07-07T05:36:37.460Z,60
2018-07-07T05:37:37.447Z,60
2018-07-07T05:38:37.173Z,65
2018-07-07T05:39:37.683Z,75
2018-07-07T05:40:37.414Z,80
2018-07-07T05:41:36.872Z,85
2018-07-07T05:42:37.126Z,85
2018-07-07T05:43:37.374Z,85
2018-07-07T05:44:37.623Z,85
2018-07-07T05:45:37.287Z,85
2018-07-07T05:46:37.076Z,85
2018-07-07T05:47:36.810Z,90
2018-07-07T05:48:37.060Z,90
2018-07-07T05:49:36.780Z,85
2018-07-07T05:50:37.079Z,90
2018-07-07T05:51:37.028Z,85
2018-07-07T05:52:37.265Z,90
2018-07-07T05:53:37.266Z,90
2018-07-07T05:54:37.243Z,90
2018-07-07T05:55:37.233Z,80
2018-07-07T05:56:37.488Z,70
2018-07-07T05:57:37.481Z,65
2018-07-07T05:58:36.931Z,60
2018-07-07T05:59:37.193Z,60
2018-07-07T06:00:36.911Z,60
2018-07-07T06:01:37.155Z,60
2018-07-07T06:02:36.885Z,60
2018-07-07T06:03:37.139Z,60
2018-07-07T06:04:36.866Z,60
2018-07-07T06:05:37.377Z,60
2018-07-07T06:06:36.835Z,60
2018-07-07T06:07:36.565Z,65
2018-07-07T06:08:37.079Z,60
2018-07-07T06:09:36.546Z,60
2018-07-07T06:10:36.533Z,60
2018-07-07T06:11:36.516Z,60
2018-07-07T06:12:36.772Z,60
2018-07-07T06:13:36.771Z,60
2018-07-07T06:14:37.206Z,60
2018-07-07T06:15:37.272Z,60
2018-07-07T06:16:37.254Z,80
2018-07-07T06:17:37.280Z,75
2018-07-07T06:18:36.704Z,65
2018-07-07T06:19:37.232Z,130
2018-07-07T06:20:36.953Z,265
2018-07-07T06:21:36.677Z,175
2018-07-07T06:22:36.656Z,85
2018-07-07T06:23:37.178Z,270
2018-07-07T06:24:36.899Z,615
2018-07-07T06:25:36.893Z,690
2018-07-07T06:26:37.232Z,415
2018-07-07T06:27:36.867Z,135
2018-07-07T06:28:36.320Z,65
2018-07-07T06:29:37.113Z,65
2018-07-07T06:30:36.566Z,65
2018-07-07T06:31:36.547Z,65
2018-07-07T06:32:36.550Z,65
2018-07-07T06:33:36.545Z,65
2018-07-07T06:34:36.785Z,70
2018-07-07T06:35:36.513Z,70
2018-07-07T06:36:36.505Z,70
2018-07-07T06:37:36.904Z,70
2018-07-07T06:38:36.481Z,70
2018-07-07T06:39:37.011Z,70
2018-07-07T06:40:36.722Z,70
2018-07-07T06:41:36.450Z,70
2018-07-07T06:42:36.432Z,70
2018-07-07T06:43:36.747Z,70
2018-07-07T06:44:36.417Z,70
2018-07-07T06:45:36.141Z,70
2018-07-07T06:46:36.129Z,70
2018-07-07T06:47:36.934Z,70
2018-07-07T06:48:36.639Z,70
2018-07-07T06:49:36.634Z,70
2018-07-07T06:50:36.887Z,115
2018-07-07T06:51:36.073Z,280
2018-07-07T06:52:36.596Z,600
2018-07-07T06:53:36.963Z,940
2018-07-07T06:54:36.844Z,930
2018-07-07T06:55:36.292Z,905
2018-07-07T06:56:36.029Z,915
2018-07-07T06:57:36.282Z,950
2018-07-07T06:58:36.270Z,1005
2018-07-07T06:59:36.677Z,985
2018-07-07T07:00:35.728Z,715
2018-07-07T07:01:36.244Z,335
2018-07-07T07:02:35.969Z,105
2018-07-07T07:03:36.356Z,95
2018-07-07T07:04:36.475Z,90
2018-07-07T07:05:36.474Z,90
2018-07-07T07:06:36.494Z,85
2018-07-07T07:07:36.455Z,90
2018-07-07T07:08:35.918Z,90
2018-07-07T07:09:36.751Z,150
2018-07-07T07:10:36.438Z,470
2018-07-07T07:11:36.420Z,795
2018-07-07T07:12:36.404Z,770
2018-07-07T07:13:36.668Z,775
2018-07-07T07:14:36.386Z,1060
2018-07-07T07:15:36.648Z,1140
2018-07-07T07:16:36.637Z,1130
2018-07-07T07:17:36.154Z,1140
2018-07-07T07:18:36.378Z,1140
2018-07-07T07:19:35.835Z,1120
2018-07-07T07:20:36.612Z,1100
2018-07-07T07:21:36.603Z,1110
2018-07-07T07:22:36.064Z,1120
2018-07-07T07:23:36.585Z,1130
2018-07-07T07:24:36.332Z,1160
2018-07-07T07:25:35.785Z,1145
2018-07-07T07:26:36.588Z,1085
2018-07-07T07:27:36.300Z,1045
2018-07-07T07:28:36.023Z,1060
2018-07-07T07:29:36.296Z,1110
2018-07-07T07:30:36.292Z,1155
2018-07-07T07:31:36.545Z,1160
2018-07-07T07:32:36.016Z,1180
2018-07-07T07:33:36.272Z,1210
2018-07-07T07:34:36.010Z,1215
2018-07-07T07:35:35.996Z,1200
2018-07-07T07:36:36.001Z,1175
2018-07-07T07:37:36.260Z,1190
2018-07-07T07:38:36.251Z,1230
2018-07-07T07:39:36.519Z,1250
2018-07-07T07:40:35.987Z,1270
2018-07-07T07:41:35.714Z,1290
2018-07-07T07:42:36.233Z,1285
2018-07-07T07:43:36.237Z,1250
2018-07-07T07:44:36.235Z,1235
2018-07-07T07:45:36.709Z,1285
2018-07-07T07:46:36.493Z,1370
2018-07-07T07:47:36.227Z,1355
2018-07-07T07:48:36.220Z,1300
2018-07-07T07:49:36.219Z,1255
2018-07-07T07:50:36.482Z,1210
2018-07-07T07:51:36.221Z,1150
2018-07-07T07:52:35.691Z,1150
2018-07-07T07:53:36.479Z,1155
2018-07-07T07:54:36.226Z,1185
2018-07-07T07:55:35.948Z,1255
2018-07-07T07:56:35.945Z,1315
2018-07-07T07:57:35.948Z,1340
2018-07-07T07:58:36.208Z,1365
2018-07-07T07:59:35.942Z,1385
2018-07-07T08:00:36.206Z,1415
2018-07-07T08:01:35.946Z,1480
2018-07-07T08:02:35.949Z,1460
2018-07-07T08:03:36.264Z,1450
2018-07-07T08:04:35.671Z,1420
2018-07-07T08:05:35.933Z,1360
2018-07-07T08:06:36.203Z,1335
2018-07-07T08:07:35.938Z,1365
2018-07-07T08:08:35.933Z,1405
2018-07-07T08:09:36.200Z,1425
2018-07-07T08:10:36.465Z,1475
2018-07-07T08:11:35.936Z,1520
2018-07-07T08:12:36.199Z,1530
2018-07-07T08:13:36.209Z,1540
2018-07-07T08:14:35.675Z,1550
2018-07-07T08:15:35.942Z,1515
2018-07-07T08:16:35.938Z,1515
2018-07-07T08:17:36.471Z,1545
2018-07-07T08:18:35.942Z,1545
2018-07-07T08:19:36.201Z,1510
2018-07-07T08:20:36.201Z,1480
2018-07-07T08:21:36.465Z,1470
2018-07-07T08:22:36.044Z,1465
2018-07-07T08:23:35.941Z,1440
2018-07-07T08:24:35.935Z,1430
2018-07-07T08:25:35.683Z,1475
2018-07-07T08:26:36.209Z,1530
2018-07-07T08:27:35.945Z,1550
2018-07-07T08:28:36.528Z,1465
2018-07-07T08:29:35.943Z,1115
2018-07-07T08:30:36.482Z,1125
2018-07-07T08:31:36.219Z,1330
2018-07-07T08:32:36.210Z,1380
2018-07-07T08:33:36.222Z,1145
2018-07-07T08:34:36.983Z,975
2018-07-07T08:35:35.960Z,1370
2018-07-07T08:36:36.458Z,1000
2018-07-07T08:37:36.508Z,1465
2018-07-07T08:38:36.217Z,1310
2018-07-07T08:39:35.687Z,920
2018-07-07T08:40:35.955Z,635
2018-07-07T08:41:35.958Z,600
2018-07-07T08:42:36.229Z,265
2018-07-07T08:43:36.228Z,230
2018-07-07T08:44:35.429Z,175
2018-07-07T08:45:35.957Z,185
2018-07-07T08:46:35.693Z,175
2018-07-07T08:47:36.214Z,200
2018-07-07T08:48:36.221Z,175
2018-07-07T08:49:36.065Z,165
2018-07-07T08:50:35.684Z,165
2018-07-07T08:51:36.215Z,160
2018-07-07T08:52:36.204Z,150
2018-07-07T08:53:36.207Z,210
2018-07-07T08:54:36.212Z,235
2018-07-07T08:55:36.461Z,165
2018-07-07T08:56:35.657Z,170
2018-07-07T08:57:36.201Z,435
2018-07-07T08:58:36.193Z,540
2018-07-07T08:59:35.918Z,650
2018-07-07T09:00:36.179Z,1570
2018-07-07T09:01:35.916Z,1715
2018-07-07T09:02:35.907Z,1630
2018-07-07T09:03:36.458Z,1550
2018-07-07T09:04:36.440Z,1545
2018-07-07T09:05:36.159Z,1615
2018-07-07T09:06:36.164Z,1730
2018-07-07T09:07:36.208Z,1850
2018-07-07T09:08:35.892Z,1905
2018-07-07T09:09:36.172Z,1850
2018-07-07T09:10:35.627Z,1845
2018-07-07T09:11:36.199Z,1910
2018-07-07T09:12:35.911Z,1830
2018-07-07T09:13:36.156Z,1795
2018-07-07T09:14:35.902Z,1530
2018-07-07T09:15:36.162Z,1730
2018-07-07T09:16:35.893Z,1290
2018-07-07T09:17:36.422Z,835
2018-07-07T09:18:36.427Z,710
2018-07-07T09:19:36.163Z,725
2018-07-07T09:20:35.633Z,1085
2018-07-07T09:21:35.638Z,800
2018-07-07T09:22:35.900Z,600
2018-07-07T09:23:35.951Z,430
2018-07-07T09:24:36.773Z,925
2018-07-07T09:25:35.896Z,505
2018-07-07T09:26:36.423Z,745
2018-07-07T09:27:36.426Z,760
2018-07-07T09:28:36.167Z,1085
2018-07-07T09:29:35.891Z,670
2018-07-07T09:30:35.908Z,500
2018-07-07T09:31:35.365Z,540
2018-07-07T09:32:36.435Z,695
2018-07-07T09:33:35.898Z,975
2018-07-07T09:34:36.427Z,970
2018-07-07T09:35:36.164Z,1375
2018-07-07T09:36:35.891Z,1645
2018-07-07T09:37:35.368Z,1555
2018-07-07T09:38:35.641Z,1735
2018-07-07T09:39:36.168Z,1475
2018-07-07T09:40:35.896Z,1700
2018-07-07T09:41:35.636Z,1395
2018-07-07T09:42:35.628Z,655
2018-07-07T09:43:35.638Z,535
2018-07-07T09:44:36.158Z,345
2018-07-07T09:45:36.357Z,215
2018-07-07T09:46:35.898Z,250
2018-07-07T09:47:36.159Z,240
2018-07-07T09:48:36.150Z,260
2018-07-07T09:49:36.164Z,310
2018-07-07T09:50:35.904Z,245
2018-07-07T09:51:35.896Z,255
2018-07-07T09:52:35.616Z,205
2018-07-07T09:53:36.148Z,195
2018-07-07T09:54:36.165Z,260
2018-07-07T09:55:35.876Z,170
2018-07-07T09:56:36.322Z,260
2018-07-07T09:57:36.144Z,185
2018-07-07T09:58:36.396Z,160
2018-07-07T09:59:35.875Z,200
2018-07-07T10:00:36.132Z,180
2018-07-07T10:01:36.142Z,290
2018-07-07T10:02:35.606Z,235
2018-07-07T10:03:35.590Z,255
2018-07-07T10:04:35.851Z,195
2018-07-07T10:05:36.113Z,160
2018-07-07T10:06:36.100Z,205
2018-07-07T10:07:35.971Z,260
2018-07-07T10:08:35.573Z,265
2018-07-07T10:09:36.372Z,285
2018-07-07T10:10:35.830Z,275
2018-07-07T10:11:36.087Z,215
2018-07-07T10:12:35.292Z,255
2018-07-07T10:13:36.380Z,220
2018-07-07T10:14:36.091Z,195
2018-07-07T10:15:35.816Z,235
2018-07-07T10:16:36.335Z,205
2018-07-07T10:17:36.056Z,220
2018-07-07T10:18:35.786Z,245
2018-07-07T10:19:36.312Z,200
2018-07-07T10:20:36.085Z,695
2018-07-07T10:21:35.775Z,225
2018-07-07T10:22:35.780Z,480
2018-07-07T10:23:36.294Z,1830
2018-07-07T10:24:36.027Z,1975
2018-07-07T10:25:35.765Z,595
2018-07-07T10:26:35.756Z,255
2018-07-07T10:27:35.757Z,2090
2018-07-07T10:28:35.754Z,1135
2018-07-07T10:29:36.041Z,1785
2018-07-07T10:30:35.762Z,2320
2018-07-07T10:31:36.162Z,2360
2018-07-07T10:32:35.749Z,2355
2018-07-07T10:33:35.788Z,2395
2018-07-07T10:34:35.749Z,2350
2018-07-07T10:35:35.741Z,2435
2018-07-07T10:36:36.269Z,2345
2018-07-07T10:37:35.950Z,1565
2018-07-07T10:38:36.276Z,965
2018-07-07T10:39:36.278Z,2070
2018-07-07T10:40:36.276Z,1100
2018-07-07T10:41:36.014Z,1865
2018-07-07T10:42:36.021Z,1915
2018-07-07T10:43:35.758Z,1955
2018-07-07T10:44:36.302Z,2055
2018-07-07T10:45:35.720Z,2100
2018-07-07T10:46:36.297Z,300
2018-07-07T10:47:36.011Z,2150
2018-07-07T10:48:36.040Z,2125
2018-07-07T10:49:36.066Z,2105
2018-07-07T10:50:35.874Z,2100
2018-07-07T10:51:35.256Z,2100
2018-07-07T10:52:36.057Z,2070
2018-07-07T10:53:35.791Z,2060
2018-07-07T10:54:35.795Z,2055
2018-07-07T10:55:35.631Z,2030
2018-07-07T10:56:35.808Z,2090
2018-07-07T10:57:36.339Z,2070
2018-07-07T10:58:35.545Z,2065
2018-07-07T10:59:36.090Z,2045
2018-07-07T11:00:35.835Z,2050
2018-07-07T11:01:36.361Z,2115
2018-07-07T11:02:36.211Z,2125
2018-07-07T11:03:35.837Z,2190
2018-07-07T11:04:35.857Z,2195
2018-07-07T11:05:35.853Z,2155
2018-07-07T11:06:35.871Z,2160
2018-07-07T11:07:36.162Z,2055
2018-07-07T11:08:35.879Z,1930
2018-07-07T11:09:36.135Z,1810
2018-07-07T11:10:36.412Z,1435
2018-07-07T11:11:35.905Z,1745
2018-07-07T11:12:35.897Z,1810
2018-07-07T11:13:36.181Z,1805
2018-07-07T11:14:36.168Z,1790
2018-07-07T11:15:36.181Z,1875
2018-07-07T11:16:35.939Z,1925
2018-07-07T11:17:36.191Z,1985
2018-07-07T11:18:35.986Z,2105
2018-07-07T11:19:36.204Z,2170
2018-07-07T11:20:36.220Z,2260
2018-07-07T11:21:35.683Z,2235
2018-07-07T11:22:35.953Z,2145
2018-07-07T11:23:35.713Z,2185
2018-07-07T11:24:35.976Z,2200
2018-07-07T11:25:35.985Z,2145
2018-07-07T11:26:36.261Z,2160
2018-07-07T11:27:35.994Z,2115
2018-07-07T11:28:36.000Z,2090
2018-07-07T11:29:36.262Z,2105
2018-07-07T11:30:36.550Z,2060
2018-07-07T11:31:35.751Z,2000
2018-07-07T11:32:36.035Z,2095
2018-07-07T11:33:36.292Z,2075
2018-07-07T11:34:35.525Z,2190
2018-07-07T11:35:36.313Z,2210
2018-07-07T11:36:37.169Z,2210
2018-07-07T11:37:36.071Z,2175
2018-07-07T11:38:36.337Z,2155
2018-07-07T11:39:36.070Z,2160
2018-07-07T11:40:36.622Z,2180
2018-07-07T11:41:36.094Z,2165
2018-07-07T11:42:36.108Z,2190
2018-07-07T11:43:36.113Z,2255
2018-07-07T11:44:36.642Z,2190
2018-07-07T11:45:36.589Z,2280
2018-07-07T11:46:36.425Z,2280
2018-07-07T11:47:35.611Z,2330
2018-07-07T11:48:36.414Z,2350
2018-07-07T11:49:36.147Z,2295
2018-07-07T11:50:36.744Z,2190
2018-07-07T11:51:36.443Z,710
2018-07-07T11:52:35.914Z,2315
2018-07-07T11:53:36.445Z,2210
2018-07-07T11:54:36.451Z,970
2018-07-07T11:55:36.461Z,755
2018-07-07T11:56:36.192Z,2145
2018-07-07T11:57:36.214Z,1625
2018-07-07T11:58:36.478Z,2100
2018-07-07T11:59:36.283Z,2125
2018-07-07T12:00:36.753Z,2115
2018-07-07T12:01:36.239Z,1995
2018-07-07T12:02:35.982Z,2095
2018-07-07T12:03:36.507Z,2125
2018-07-07T12:04:36.592Z,2200
2018-07-07T12:05:36.262Z,2235
2018-07-07T12:06:36.275Z,1905
2018-07-07T12:07:36.295Z,2050
2018-07-07T12:08:36.520Z,1955
2018-07-07T12:09:36.555Z,1965
2018-07-07T12:10:36.306Z,2010
2018-07-07T12:11:37.069Z,1735
2018-07-07T12:12:36.851Z,2160
2018-07-07T12:13:36.853Z,2060
2018-07-07T12:14:36.864Z,2075
2018-07-07T12:15:36.334Z,2080
2018-07-07T12:16:36.344Z,2115
2018-07-07T12:17:36.533Z,2165
2018-07-07T12:18:36.610Z,1840
2018-07-07T12:19:36.632Z,2060
2018-07-07T12:20:36.107Z,2170
2018-07-07T12:21:36.642Z,2100
2018-07-07T12:22:36.387Z,2020
2018-07-07T12:23:36.672Z,1900
2018-07-07T12:24:36.408Z,1785
2018-07-07T12:25:36.938Z,1975
2018-07-07T12:26:36.150Z,1735
2018-07-07T12:27:36.688Z,1015
2018-07-07T12:28:36.947Z,2005
2018-07-07T12:29:36.439Z,1980
2018-07-07T12:30:36.714Z,2020
2018-07-07T12:31:36.583Z,2085
2018-07-07T12:32:36.721Z,2135
2018-07-07T12:33:36.990Z,2155
2018-07-07T12:34:36.743Z,1820
2018-07-07T12:35:37.018Z,1950
2018-07-07T12:36:36.217Z,1715
2018-07-07T12:37:36.764Z,1670
2018-07-07T12:38:37.034Z,1650
2018-07-07T12:39:36.778Z,1815
2018-07-07T12:40:37.603Z,2035
2018-07-07T12:41:36.258Z,1975
2018-07-07T12:42:36.531Z,1815
2018-07-07T12:43:36.347Z,1220
2018-07-07T12:44:36.563Z,1710
2018-07-07T12:45:36.824Z,1795
2018-07-07T12:46:36.031Z,1835
2018-07-07T12:47:36.577Z,1895
2018-07-07T12:48:36.313Z,1900
2018-07-07T12:49:37.109Z,1875
2018-07-07T12:50:37.137Z,1795
2018-07-07T12:51:37.121Z,1610
2018-07-07T12:52:36.913Z,1725
2018-07-07T12:53:36.882Z,1825
2018-07-07T12:54:36.624Z,1930
2018-07-07T12:55:37.177Z,1565
2018-07-07T12:56:36.639Z,1850
2018-07-07T12:57:36.905Z,1750
2018-07-07T12:58:36.650Z,1860
2018-07-07T12:59:36.663Z,1725
2018-07-07T13:00:36.680Z,1895
2018-07-07T13:01:36.681Z,2040
2018-07-07T13:02:37.214Z,2050
2018-07-07T13:03:36.954Z,2050
2018-07-07T13:04:36.431Z,1990
2018-07-07T13:05:37.230Z,1915
2018-07-07T13:06:36.441Z,1820
2018-07-07T13:07:36.191Z,1780
2018-07-07T13:08:36.978Z,1800
2018-07-07T13:09:36.727Z,1790
2018-07-07T13:10:37.270Z,1830
2018-07-07T13:11:36.482Z,1845
2018-07-07T13:12:36.752Z,1960
2018-07-07T13:13:36.758Z,1945
2018-07-07T13:14:36.774Z,1900
2018-07-07T13:15:36.775Z,1785
2018-07-07T13:16:37.049Z,1700
2018-07-07T13:17:37.343Z,1650
2018-07-07T13:18:36.794Z,1710
2018-07-07T13:19:37.076Z,1745
2018-07-07T13:20:37.137Z,1760
2018-07-07T13:21:37.082Z,1450
2018-07-07T13:22:36.830Z,1625
2018-07-07T13:23:36.840Z,1635
2018-07-07T13:24:37.099Z,1785
2018-07-07T13:25:36.584Z,1900
2018-07-07T13:26:37.334Z,2015
2018-07-07T13:27:36.876Z,1910
2018-07-07T13:28:36.866Z,1755
2018-07-07T13:29:37.159Z,1750
2018-07-07T13:30:36.891Z,1745
2018-07-07T13:31:37.156Z,1725
2018-07-07T13:32:37.425Z,1625
2018-07-07T13:33:37.733Z,1670
2018-07-07T13:34:36.914Z,1675
2018-07-07T13:35:36.919Z,1740
2018-07-07T13:36:36.933Z,1795
2018-07-07T13:37:36.936Z,1755
2018-07-07T13:38:37.470Z,1790
2018-07-07T13:39:36.951Z,1785
2018-07-07T13:40:37.232Z,1760
2018-07-07T13:41:37.491Z,1795
2018-07-07T13:42:37.240Z,1890
2018-07-07T13:43:36.978Z,1960
2018-07-07T13:44:36.986Z,1945
2018-07-07T13:45:37.499Z,1815
2018-07-07T13:46:37.517Z,1610
2018-07-07T13:47:37.538Z,1580
2018-07-07T13:48:37.532Z,1665
2018-07-07T13:49:37.278Z,1585
2018-07-07T13:50:37.029Z,1540
2018-07-07T13:51:37.305Z,1460
2018-07-07T13:52:37.302Z,1370
2018-07-07T13:53:37.587Z,1525
2018-07-07T13:54:37.052Z,1540
2018-07-07T13:55:37.601Z,1495
2018-07-07T13:56:37.323Z,1505